KGSO/GSO METAR and TAF weather

Enter ICAO airport designator
Station Type Date Time Source
KGSO METAR 2021/03/08 12:54 UTC NOAA

KGSO 081254Z 31003KT 10SM FEW250 02/M09 A3051 RMK AO2 SLP335 T00221089


Station Type Date Time Source
KGSO Decoded METAR 2021/03/08 12:54 UTC NOAA

PIEDMONT TRIAD INTERNATIONAL AIRPORT , NC, United States (KGSO) 36-06N 079-57W 275M
Mar 08, 2021 - 07:54 AM EST / 2021.03.08 1254 UTC
Wind: from the NW (310 degrees) at 3 MPH (3 KT):0
Visibility: 10 mile(s):0
Sky conditions: mostly clear
Temperature: 36.0 F (2.2 C)
Dew Point: 16.0 F (-8.9 C)
Relative Humidity: 43%
Pressure (altimeter): 30.51 in. Hg (1033 hPa)
ob: KGSO 081254Z 31003KT 10SM FEW250 02/M09 A3051 RMK AO2 SLP335 T00221089
cycle: 13

Station Type Date Time Source
KGSO TAF 2021/03/08 12:39 UTC NOAA

TAF KGSO 081136Z 0812/0912 32006KT P6SM FEW250

Example: see airport list